createdAt,value
2022-07-30T00:07:05.691Z,2.65
2022-07-30T00:09:48.934Z,2.70
2022-07-30T00:17:51.566Z,2.28
2022-07-30T00:20:23.418Z,2.40
2022-07-30T00:22:55.863Z,2.58
2022-07-30T00:25:43.304Z,2.60
2022-07-30T00:28:10.004Z,2.40
2022-07-30T00:31:05.212Z,2.65
2022-07-30T00:37:06.710Z,2.70
2022-07-30T00:39:46.752Z,2.53
2022-07-30T00:42:21.696Z,2.50
2022-07-30T00:44:51.095Z,2.90
2022-07-30T00:47:28.404Z,2.40
2022-07-30T00:50:07.625Z,2.42
2022-07-30T00:52:35.623Z,2.50
2022-07-30T00:55:36.224Z,2.50
2022-07-30T00:58:29.853Z,2.53
2022-07-30T01:01:42.413Z,3.42
2022-07-30T01:04:23.825Z,3.20
2022-07-30T01:07:18.340Z,1.85
2022-07-30T01:09:50.048Z,3.05
2022-07-30T01:13:07.593Z,2.90
2022-07-30T01:15:30.447Z,2.88
2022-07-30T01:31:31.308Z,2.20
2022-07-30T01:34:06.373Z,2.45
2022-07-30T01:39:58.633Z,2.65
2022-07-30T01:53:33.484Z,1.90
2022-07-30T01:55:56.610Z,1.70
2022-07-30T01:58:46.467Z,2.00
2022-07-30T02:01:34.659Z,1.80
2022-07-30T02:15:05.805Z,1.73
2022-07-30T02:17:54.691Z,1.90
2022-07-30T02:20:28.309Z,1.42
2022-07-30T02:23:12.988Z,1.70
2022-07-30T02:25:56.502Z,1.83
2022-07-30T02:28:39.536Z,1.70
2022-07-30T02:31:28.773Z,2.00
2022-07-30T02:40:01.111Z,2.17
2022-07-30T03:03:01.879Z,3.53
2022-07-30T03:11:46.711Z,3.80
2022-07-30T03:14:21.507Z,4.03
2022-07-30T03:17:16.003Z,5.53
2022-07-30T03:29:10.628Z,6.03
2022-07-30T03:32:20.014Z,5.57
2022-07-30T03:35:20.498Z,6.00
2022-07-30T03:37:51.542Z,4.60
2022-07-30T03:40:31.739Z,4.22
2022-07-30T04:16:38.838Z,7.55
2022-07-30T04:19:15.608Z,7.97
2022-07-30T04:24:38.038Z,6.18
2022-07-30T04:28:14.656Z,6.07
2022-07-30T04:30:35.142Z,5.35
2022-07-30T04:33:10.209Z,5.00
2022-07-30T04:35:51.291Z,4.47
2022-07-30T04:39:20.974Z,4.40
2022-07-30T04:48:10.337Z,2.90
2022-07-30T04:58:12.744Z,2.17
2022-07-30T05:14:55.814Z,2.55
2022-07-30T05:17:22.271Z,2.70
2022-07-30T05:20:25.453Z,2.65
2022-07-30T05:23:06.873Z,2.38
2022-07-30T05:25:35.290Z,2.72
2022-07-30T05:28:23.503Z,2.95
2022-07-30T05:31:10.430Z,2.90
2022-07-30T05:34:38.547Z,2.75
2022-07-30T05:37:21.274Z,3.55
2022-07-30T05:41:32.870Z,3.38
2022-07-30T05:42:42.788Z,2.90
2022-07-30T05:45:28.252Z,2.50
2022-07-30T05:48:01.539Z,3.58
2022-07-30T05:50:37.433Z,3.75
2022-07-30T05:53:11.552Z,3.13
2022-07-30T05:55:44.041Z,3.83
2022-07-30T05:58:14.680Z,2.58
2022-07-30T06:01:07.544Z,4.18
2022-07-30T06:03:41.302Z,3.35
2022-07-30T06:06:22.721Z,4.28
2022-07-30T06:08:54.308Z,5.00
2022-07-30T06:11:21.940Z,5.72
2022-07-30T06:13:55.117Z,4.70
2022-07-30T06:16:28.142Z,5.45
2022-07-30T06:19:04.366Z,5.32
2022-07-30T06:21:30.884Z,6.38
2022-07-30T06:24:17.444Z,6.15
2022-07-30T06:26:44.031Z,4.60
2022-07-30T06:29:10.559Z,4.82
2022-07-30T06:31:40.922Z,6.22
2022-07-30T06:34:07.476Z,3.70
2022-07-30T06:36:34.028Z,4.60
2022-07-30T06:39:00.509Z,5.65
2022-07-30T06:41:27.027Z,5.43
2022-07-30T06:43:53.620Z,4.28
2022-07-30T06:46:20.212Z,4.93
2022-07-30T06:48:49.935Z,4.95
2022-07-30T06:51:16.469Z,4.85
2022-07-30T06:53:45.715Z,3.92
2022-07-30T06:56:24.812Z,5.13
2022-07-30T06:58:57.359Z,4.32
2022-07-30T07:02:42.307Z,4.80
2022-07-30T07:04:42.553Z,4.70
2022-07-30T07:07:31.456Z,4.90
2022-07-30T07:10:03.321Z,4.18
2022-07-30T07:12:38.214Z,3.40
2022-07-30T07:15:36.502Z,4.00
2022-07-30T07:18:04.047Z,3.28
2022-07-30T07:20:30.599Z,2.95
2022-07-30T07:22:57.055Z,2.85
2022-07-30T07:25:47.807Z,2.97
2022-07-30T07:28:18.832Z,3.15
2022-07-30T07:32:05.418Z,3.00
2022-07-30T07:37:02.548Z,2.58
2022-07-30T07:45:44.814Z,3.60
2022-07-30T07:48:35.135Z,3.05
2022-07-30T07:51:13.010Z,3.75
2022-07-30T07:53:55.873Z,4.03
2022-07-30T08:00:46.951Z,3.38
2022-07-30T08:02:20.111Z,3.67
2022-07-30T08:04:57.015Z,3.67
2022-07-30T08:07:27.537Z,2.85
2022-07-30T08:09:57.121Z,3.47
2022-07-30T08:13:48.136Z,4.32
2022-07-30T08:18:17.699Z,3.83
2022-07-30T08:20:52.617Z,3.85
2022-07-30T08:23:34.343Z,4.50
2022-07-30T08:26:03.827Z,4.32
2022-07-30T08:28:49.610Z,3.92
2022-07-30T08:36:21.537Z,3.88
2022-07-30T08:44:21.875Z,3.92
2022-07-30T08:47:07.704Z,3.63
2022-07-30T08:49:50.067Z,2.53
2022-07-30T08:52:31.300Z,3.42
2022-07-30T08:55:09.351Z,3.78
2022-07-30T08:57:51.464Z,3.20
2022-07-30T09:00:22.112Z,3.50
2022-07-30T09:02:48.793Z,2.15
2022-07-30T09:05:39.996Z,3.33
2022-07-30T09:08:08.822Z,2.85
2022-07-30T09:16:25.244Z,2.40
2022-07-30T09:18:57.858Z,2.70
2022-07-30T09:21:37.619Z,2.13
2022-07-30T09:29:58.905Z,1.73
2022-07-30T09:34:54.424Z,2.28
2022-07-30T09:36:19.042Z,2.78
2022-07-30T09:38:53.426Z,2.83
2022-07-30T09:41:53.323Z,2.83
2022-07-30T09:44:33.892Z,2.20
2022-07-30T09:47:38.351Z,2.13
2022-07-30T09:56:53.996Z,2.15
2022-07-30T09:59:34.741Z,2.13
2022-07-30T10:02:33.081Z,2.20
2022-07-30T10:05:26.777Z,2.53
2022-07-30T10:08:16.393Z,1.75
2022-07-30T10:13:58.460Z,1.77
2022-07-30T10:16:48.344Z,1.90
2022-07-30T10:19:40.346Z,1.60
2022-07-30T10:22:22.772Z,1.88
2022-07-30T10:25:00.196Z,1.70
2022-07-30T10:27:27.133Z,1.60
2022-07-30T10:30:04.055Z,1.75
2022-07-30T10:32:31.892Z,1.88
2022-07-30T10:35:03.975Z,1.58
2022-07-30T10:37:50.640Z,2.20
2022-07-30T10:40:23.032Z,2.30
2022-07-30T10:44:19.685Z,2.08
2022-07-30T10:46:55.259Z,1.88
2022-07-30T10:49:27.715Z,1.70
2022-07-30T10:52:01.780Z,2.63
2022-07-30T10:54:40.650Z,1.50
2022-07-30T10:57:31.603Z,1.40
2022-07-30T11:00:01.281Z,1.65
2022-07-30T11:02:45.413Z,1.58
2022-07-30T11:05:27.203Z,1.60
2022-07-30T11:08:57.238Z,1.80
2022-07-30T11:13:06.807Z,1.30
2022-07-30T11:14:56.697Z,1.38
2022-07-30T11:17:26.420Z,1.30
2022-07-30T11:20:04.942Z,1.30
2022-07-30T11:22:50.901Z,1.30
2022-07-30T11:27:24.784Z,1.48
2022-07-30T11:28:41.131Z,1.58
2022-07-30T11:31:54.786Z,1.50
2022-07-30T11:34:25.797Z,1.10
2022-07-30T11:37:19.226Z,1.30
2022-07-30T11:39:57.913Z,1.20
2022-07-30T11:42:39.636Z,0.90
2022-07-30T11:48:20.780Z,1.00
2022-07-30T11:50:52.727Z,1.10
2022-07-30T11:53:21.186Z,0.80
2022-07-30T11:56:39.812Z,0.80
2022-07-30T11:59:03.892Z,0.65
2022-07-30T12:02:09.383Z,0.80
2022-07-30T12:04:54.135Z,1.00
2022-07-30T12:07:37.002Z,1.10
2022-07-30T12:10:27.152Z,0.80
2022-07-30T12:15:47.193Z,0.70
2022-07-30T12:18:26.225Z,0.75
2022-07-30T12:21:32.764Z,0.80
2022-07-30T12:24:08.680Z,1.05
2022-07-30T12:26:35.588Z,0.60
2022-07-30T12:31:52.804Z,0.60
2022-07-30T12:34:28.019Z,0.60
2022-07-30T12:36:54.976Z,0.70
2022-07-30T12:39:25.917Z,0.73
2022-07-30T12:41:53.733Z,0.70
2022-07-30T12:44:46.568Z,0.70
2022-07-30T12:47:42.317Z,0.90
2022-07-30T12:50:23.149Z,0.90
2022-07-30T12:52:57.665Z,0.90
2022-07-30T12:55:41.803Z,0.82
2022-07-30T12:58:14.313Z,0.85
2022-07-30T13:00:48.157Z,0.93
2022-07-30T13:03:28.881Z,0.80
2022-07-30T13:05:58.705Z,1.10
2022-07-30T13:08:57.586Z,0.80
2022-07-30T13:11:40.591Z,0.90
2022-07-30T13:14:12.369Z,0.70
2022-07-30T13:17:39.727Z,1.00
2022-07-30T13:19:40.325Z,0.90
2022-07-30T13:22:32.031Z,0.98
2022-07-30T13:24:58.709Z,1.02
2022-07-30T13:27:39.273Z,0.77
2022-07-30T13:31:06.276Z,1.10
2022-07-30T13:33:06.390Z,1.20
2022-07-30T13:35:39.125Z,0.85
2022-07-30T13:38:16.457Z,0.75
2022-07-30T13:40:59.091Z,1.00
2022-07-30T13:43:36.047Z,1.13
2022-07-30T13:46:05.490Z,0.50
2022-07-30T13:48:33.517Z,0.73
2022-07-30T13:51:21.589Z,0.80
2022-07-30T13:53:58.080Z,0.70
2022-07-30T13:56:34.079Z,0.60
2022-07-30T13:59:12.445Z,0.77
2022-07-30T14:01:46.532Z,0.60
2022-07-30T14:04:16.002Z,0.65
2022-07-30T14:06:48.939Z,0.95
2022-07-30T14:15:17.859Z,0.50
2022-07-30T14:18:16.213Z,0.65
2022-07-30T14:20:55.917Z,0.45
2022-07-30T14:23:36.683Z,0.57
2022-07-30T14:26:07.575Z,0.70
2022-07-30T14:28:34.016Z,0.50
2022-07-30T14:31:23.159Z,0.50
2022-07-30T14:33:51.936Z,0.65
2022-07-30T14:36:20.814Z,0.63
2022-07-30T14:44:30.377Z,0.77
2022-07-30T14:46:59.919Z,0.60
2022-07-30T14:49:50.656Z,0.77
2022-07-30T14:52:17.107Z,0.65
2022-07-30T14:54:43.553Z,0.70
2022-07-30T14:57:13.950Z,0.70
2022-07-30T14:59:42.606Z,0.80
2022-07-30T15:02:15.893Z,0.90
2022-07-30T15:04:45.104Z,0.90
2022-07-30T15:07:12.978Z,1.05
2022-07-30T15:09:39.518Z,1.05
2022-07-30T15:12:09.947Z,1.10
2022-07-30T15:14:40.277Z,0.80
2022-07-30T15:17:07.751Z,0.82
2022-07-30T15:19:34.322Z,1.00
2022-07-30T15:22:02.645Z,0.82
2022-07-30T15:24:30.422Z,1.90
2022-07-30T15:26:56.957Z,1.27
2022-07-30T15:29:24.247Z,1.10
2022-07-30T15:31:51.387Z,0.90
2022-07-30T15:34:17.883Z,0.93
2022-07-30T15:36:44.438Z,1.33
2022-07-30T15:39:11.070Z,1.55
2022-07-30T15:41:37.716Z,1.15
2022-07-30T15:44:04.475Z,0.93
2022-07-30T15:46:30.991Z,1.05
2022-07-30T15:48:57.466Z,1.10
2022-07-30T15:51:24.089Z,1.10
2022-07-30T15:53:50.613Z,1.20
2022-07-30T15:56:18.527Z,1.25
2022-07-30T15:58:45.008Z,1.13
2022-07-30T16:01:11.806Z,1.20
2022-07-30T16:03:38.623Z,1.52
2022-07-30T16:07:13.293Z,0.80
2022-07-30T16:09:34.328Z,0.80
2022-07-30T16:15:01.193Z,0.85
2022-07-30T16:20:11.112Z,0.90
2022-07-30T16:23:38.884Z,0.80
2022-07-30T16:25:43.690Z,0.90
2022-07-30T16:28:24.206Z,0.80
2022-07-30T16:30:54.276Z,0.60
2022-07-30T16:33:20.807Z,0.98
2022-07-30T16:35:48.589Z,0.90
2022-07-30T16:38:15.868Z,0.90
2022-07-30T16:40:42.352Z,1.05
2022-07-30T16:43:08.791Z,0.90
2022-07-30T16:45:36.466Z,0.90
2022-07-30T16:48:03.146Z,1.00
2022-07-30T16:50:30.530Z,0.80
2022-07-30T16:52:56.989Z,0.73
2022-07-30T16:55:23.430Z,0.70
2022-07-30T16:57:49.964Z,0.77
2022-07-30T17:00:18.156Z,0.80
2022-07-30T17:02:44.799Z,0.80
2022-07-30T17:05:13.807Z,0.60
2022-07-30T17:07:40.679Z,0.75
2022-07-30T17:10:07.660Z,1.00
2022-07-30T17:15:06.223Z,0.98
2022-07-30T17:17:32.771Z,0.80
2022-07-30T17:20:01.827Z,1.30
2022-07-30T17:22:28.840Z,1.00
2022-07-30T17:24:55.324Z,0.98
2022-07-30T17:27:21.803Z,1.00
2022-07-30T17:29:48.328Z,1.10
2022-07-30T17:32:17.056Z,1.15
2022-07-30T17:34:43.606Z,1.00
2022-07-30T17:37:10.205Z,1.10
2022-07-30T17:40:19.309Z,1.10
2022-07-30T17:42:25.398Z,1.10
2022-07-30T17:44:52.473Z,1.17
2022-07-30T17:47:18.980Z,1.33
2022-07-30T17:49:46.236Z,1.20
2022-07-30T17:52:12.879Z,1.25
2022-07-30T17:54:39.618Z,1.60
2022-07-30T17:57:06.120Z,3.38
2022-07-30T17:59:32.589Z,2.40
2022-07-30T18:02:00.058Z,15.32
2022-07-30T18:04:27.256Z,12.52
2022-07-30T18:06:53.725Z,7.15
2022-07-30T18:09:20.164Z,4.07
2022-07-30T18:11:46.927Z,2.38
2022-07-30T18:14:13.373Z,1.80
2022-07-30T18:16:39.858Z,1.15
2022-07-30T18:19:06.353Z,1.25
2022-07-30T18:21:33.167Z,1.45
2022-07-30T18:23:59.684Z,1.17
2022-07-30T18:26:26.733Z,1.40
2022-07-30T18:28:53.207Z,1.40
2022-07-30T18:31:19.648Z,1.60
2022-07-30T18:33:46.118Z,1.40
2022-07-30T18:36:12.591Z,1.45
2022-07-30T18:38:39.106Z,1.30
2022-07-30T18:41:05.706Z,1.27
2022-07-30T18:43:32.424Z,1.30
2022-07-30T18:46:14.242Z,1.88
2022-07-30T18:48:40.715Z,1.63
2022-07-30T18:51:09.680Z,1.80
2022-07-30T18:53:39.996Z,1.42
2022-07-30T18:56:06.464Z,1.20
2022-07-30T18:58:34.091Z,1.50
2022-07-30T19:01:00.577Z,1.48
2022-07-30T19:03:27.071Z,1.10
2022-07-30T19:05:53.558Z,1.55
2022-07-30T19:08:20.059Z,1.58
2022-07-30T19:10:46.618Z,1.45
2022-07-30T19:13:13.083Z,1.65
2022-07-30T19:15:39.584Z,1.55
2022-07-30T19:18:06.113Z,1.50
2022-07-30T19:20:32.879Z,1.30
2022-07-30T19:23:03.949Z,1.15
2022-07-30T19:25:31.080Z,1.75
2022-07-30T19:27:57.579Z,1.50
2022-07-30T19:30:24.294Z,1.55
2022-07-30T19:32:50.870Z,1.50
2022-07-30T19:35:17.397Z,1.58
2022-07-30T19:37:44.200Z,1.55
2022-07-30T19:43:02.159Z,1.52
2022-07-30T19:45:46.920Z,1.33
2022-07-30T19:48:15.459Z,1.45
2022-07-30T19:50:56.621Z,2.00
2022-07-30T19:53:23.075Z,1.50
2022-07-30T19:55:50.751Z,1.70
2022-07-30T19:58:20.028Z,1.60
2022-07-30T20:00:49.765Z,1.50
2022-07-30T20:03:25.309Z,1.77
2022-07-30T20:05:57.552Z,2.08
2022-07-30T20:08:27.017Z,2.20
2022-07-30T20:10:53.651Z,1.70
2022-07-30T20:13:44.969Z,1.75
2022-07-30T20:16:13.895Z,2.03
2022-07-30T20:18:41.999Z,2.22
2022-07-30T20:21:14.304Z,2.03
2022-07-30T20:23:41.867Z,1.60
2022-07-30T20:26:13.499Z,2.45
2022-07-30T20:28:41.874Z,2.30
2022-07-30T20:31:08.359Z,2.30
2022-07-30T20:33:36.010Z,1.95
2022-07-30T20:36:04.767Z,2.20
2022-07-30T20:38:33.708Z,2.30
2022-07-30T20:41:02.211Z,2.45
2022-07-30T20:43:29.019Z,2.08
2022-07-30T20:45:56.087Z,2.13
2022-07-30T20:48:25.559Z,1.65
2022-07-30T20:50:52.449Z,1.75
2022-07-30T20:53:19.795Z,1.63
2022-07-30T20:55:48.456Z,1.67
2022-07-30T20:58:17.389Z,1.75
2022-07-30T21:00:49.861Z,1.60
2022-07-30T21:03:21.432Z,1.50
2022-07-30T21:05:48.249Z,1.75
2022-07-30T21:08:17.829Z,1.25
2022-07-30T21:10:44.809Z,1.50
2022-07-30T21:13:13.835Z,1.50
2022-07-30T21:15:45.450Z,1.55
2022-07-30T21:18:12.533Z,1.88
2022-07-30T21:21:14.382Z,1.67
2022-07-30T21:23:40.830Z,1.48
2022-07-30T21:26:13.299Z,1.73
2022-07-30T21:28:40.317Z,1.40
2022-07-30T21:31:07.502Z,1.35
2022-07-30T21:33:35.919Z,1.60
2022-07-30T21:36:02.397Z,1.38
2022-07-30T21:38:30.603Z,1.40
2022-07-30T21:40:58.265Z,1.20
2022-07-30T21:43:30.103Z,1.02
2022-07-30T21:45:58.091Z,1.02
2022-07-30T21:48:25.503Z,0.80
2022-07-30T21:50:54.071Z,1.08
2022-07-30T21:53:29.772Z,1.17
2022-07-30T21:56:07.003Z,1.30
2022-07-30T21:58:33.574Z,0.80
2022-07-30T22:01:16.798Z,0.90
2022-07-30T22:04:01.674Z,0.65
2022-07-30T22:06:37.745Z,0.90
2022-07-30T22:09:19.086Z,0.93
2022-07-30T22:11:53.302Z,0.95
2022-07-30T22:14:19.839Z,1.10
2022-07-30T22:16:46.864Z,0.80
2022-07-30T22:19:14.873Z,1.02
2022-07-30T22:21:42.699Z,1.30
2022-07-30T22:24:29.990Z,1.02
2022-07-30T22:32:09.438Z,1.00
2022-07-30T22:34:35.979Z,0.85
2022-07-30T22:37:02.721Z,1.05
2022-07-30T22:39:32.217Z,1.10
2022-07-30T22:42:16.276Z,0.90
2022-07-30T22:47:52.634Z,0.88
2022-07-30T22:50:17.358Z,1.10
2022-07-30T22:52:53.553Z,1.00
2022-07-30T22:55:26.952Z,1.20
2022-07-30T22:57:53.888Z,1.00
2022-07-30T23:00:28.075Z,0.90
2022-07-30T23:02:56.091Z,1.00
2022-07-30T23:05:22.802Z,0.93
2022-07-30T23:07:49.677Z,0.98
2022-07-30T23:10:18.647Z,1.20
2022-07-30T23:12:16.795Z,1.40
2022-07-30T23:12:30.390Z,0.70
2022-07-30T23:12:50.989Z,1.02
2022-07-30T23:15:18.344Z,0.95
2022-07-30T23:17:44.826Z,1.20
2022-07-30T23:20:13.988Z,1.10
2022-07-30T23:22:40.823Z,0.88
2022-07-30T23:25:10.206Z,1.75
2022-07-30T23:27:37.598Z,0.95
2022-07-30T23:30:04.537Z,1.13
2022-07-30T23:32:30.976Z,1.17
2022-07-30T23:34:57.495Z,0.90
2022-07-30T23:37:23.971Z,0.90
2022-07-30T23:39:50.416Z,1.23
2022-07-30T23:42:17.256Z,1.08
2022-07-30T23:44:43.791Z,1.05
2022-07-30T23:47:10.324Z,1.10
2022-07-30T23:49:38.393Z,1.20
2022-07-30T23:52:05.200Z,1.30
2022-07-30T23:54:31.787Z,1.25
2022-07-30T23:56:58.388Z,1.73
2022-07-30T23:59:36.824Z,1.10
